createdAt,value
2016-10-01T00:00:41.422Z,1010.03
2016-10-01T00:01:41.443Z,1010.04
2016-10-01T00:03:41.488Z,1010.05
2016-10-01T00:04:41.513Z,1010.05
2016-10-01T00:05:41.534Z,1010.04
2016-10-01T00:06:41.556Z,1010
2016-10-01T00:07:41.580Z,1010.03
2016-10-01T00:08:41.601Z,1010.02
2016-10-01T00:09:41.625Z,1010.04
2016-10-01T00:10:41.646Z,1010.03
2016-10-01T00:11:41.674Z,1010.07
2016-10-01T00:12:41.692Z,1010.04
2016-10-01T00:13:41.713Z,1010.01
2016-10-01T00:14:41.736Z,1010.02
2016-10-01T00:15:41.761Z,1010.01
2016-10-01T00:16:41.780Z,1010.03
2016-10-01T00:17:41.805Z,1010.02
2016-10-01T00:19:41.848Z,1009.97
2016-10-01T00:20:41.871Z,1009.98
2016-10-01T00:21:41.892Z,1009.99
2016-10-01T00:22:41.968Z,1009.97
2016-10-01T00:23:41.939Z,1009.99
2016-10-01T00:24:41.960Z,1010.01
2016-10-01T00:25:41.984Z,1010.01
2016-10-01T00:26:42.006Z,1009.98
2016-10-01T00:27:42.027Z,1009.97
2016-10-01T00:28:42.052Z,1009.99
2016-10-01T00:29:42.075Z,1010.03
2016-10-01T00:30:42.098Z,1010
2016-10-01T00:31:42.117Z,1009.99
2016-10-01T00:32:42.142Z,1010
2016-10-01T00:33:42.163Z,1009.96
2016-10-01T00:35:42.207Z,1009.93
2016-10-01T00:36:42.232Z,1009.91
2016-10-01T00:37:42.252Z,1009.88
2016-10-01T00:38:42.276Z,1009.92
2016-10-01T00:39:42.296Z,1009.94
2016-10-01T00:40:42.320Z,1009.92
2016-10-01T00:41:42.341Z,1009.95
2016-10-01T00:42:42.363Z,1009.95
2016-10-01T00:43:42.388Z,1009.92
2016-10-01T00:44:42.408Z,1009.97
2016-10-01T00:45:42.430Z,1009.91
2016-10-01T00:46:42.454Z,1009.93
2016-10-01T00:47:42.477Z,1009.91
2016-10-01T00:48:42.498Z,1009.88
2016-10-01T00:49:42.522Z,1009.89
2016-10-01T00:51:42.567Z,1009.8
2016-10-01T00:52:42.588Z,1009.73
2016-10-01T00:53:42.609Z,1009.75
2016-10-01T00:54:42.634Z,1009.75
2016-10-01T00:55:42.656Z,1009.75
2016-10-01T00:56:42.676Z,1009.77
2016-10-01T00:57:42.698Z,1009.74
2016-10-01T00:58:42.723Z,1009.75
2016-10-01T00:59:42.743Z,1009.77
2016-10-01T01:00:42.765Z,1009.76
2016-10-01T01:01:42.788Z,1009.73
2016-10-01T01:02:42.813Z,1009.75
2016-10-01T01:03:42.885Z,1009.71
2016-10-01T01:04:42.858Z,1009.72
2016-10-01T01:06:42.901Z,1009.67
2016-10-01T01:07:42.922Z,1009.66
2016-10-01T01:08:42.947Z,1009.65
2016-10-01T01:09:42.967Z,1009.65
2016-10-01T01:10:42.989Z,1009.7
2016-10-01T01:11:43.011Z,1009.65
2016-10-01T01:12:43.036Z,1009.59
2016-10-01T01:13:43.058Z,1009.57
2016-10-01T01:14:43.081Z,1009.55
2016-10-01T01:15:43.302Z,1009.53
2016-10-01T01:16:43.125Z,1009.51
2016-10-01T01:17:43.145Z,1009.49
2016-10-01T01:18:43.167Z,1009.45
2016-10-01T01:19:43.189Z,1009.41
2016-10-01T01:20:43.214Z,1009.39
2016-10-01T01:21:43.234Z,1009.35
2016-10-01T01:22:43.259Z,1009.33
2016-10-01T01:23:43.280Z,1009.28
2016-10-01T01:24:43.301Z,1009.31
2016-10-01T01:25:43.322Z,1009.28
2016-10-01T01:26:43.345Z,1009.29
2016-10-01T01:27:43.367Z,1009.27
2016-10-01T01:28:43.391Z,1009.29
2016-10-01T01:29:43.412Z,1009.33
2016-10-01T01:30:43.434Z,1009.26
2016-10-01T01:31:43.457Z,1009.27
2016-10-01T01:32:43.481Z,1009.22
2016-10-01T01:33:43.502Z,1009.19
2016-10-01T01:34:43.525Z,1009.22
2016-10-01T01:35:43.547Z,1009.23
2016-10-01T01:36:43.567Z,1009.19
2016-10-01T01:38:43.613Z,1009.18
2016-10-01T01:39:43.636Z,1009.21
2016-10-01T01:40:43.657Z,1009.15
2016-10-01T01:41:43.680Z,1009.18
2016-10-01T01:42:43.701Z,1009.19
2016-10-01T01:43:43.725Z,1009.16
2016-10-01T01:44:43.745Z,1009.12
2016-10-01T01:45:43.766Z,1009.1
2016-10-01T01:46:43.791Z,1009.09
2016-10-01T01:47:43.810Z,1009.07
2016-10-01T01:48:43.834Z,1009.06
2016-10-01T01:49:43.870Z,1009.07
2016-10-01T01:50:43.879Z,1009.08
2016-10-01T01:51:43.900Z,1009.05
2016-10-01T01:52:43.922Z,1009.04
2016-10-01T01:54:43.967Z,1009.01
2016-10-01T01:55:43.987Z,1009.07
2016-10-01T01:56:44.011Z,1009.02
2016-10-01T01:57:44.031Z,1009.04
2016-10-01T01:58:44.054Z,1009.03
2016-10-01T01:59:44.089Z,1009.02
2016-10-01T02:00:44.097Z,1009.03
2016-10-01T02:01:44.122Z,1009.04
2016-10-01T02:02:44.141Z,1008.97
2016-10-01T02:03:44.165Z,1008.99
2016-10-01T02:04:44.185Z,1009
2016-10-01T02:05:44.261Z,1009.03
2016-10-01T02:06:44.237Z,1009.05
2016-10-01T02:07:44.253Z,1009.04
2016-10-01T02:08:44.279Z,1009.06
2016-10-01T02:10:44.319Z,1009.05
2016-10-01T02:11:44.341Z,1009.06
2016-10-01T02:12:44.361Z,1009.09
2016-10-01T02:13:44.383Z,1009.09
2016-10-01T02:14:44.405Z,1009.08
2016-10-01T02:15:44.429Z,1009.1
2016-10-01T02:16:44.450Z,1009.07
2016-10-01T02:17:44.471Z,1009.06
2016-10-01T02:18:44.493Z,1009.03
2016-10-01T02:19:44.517Z,1008.98
2016-10-01T02:20:44.536Z,1008.97
2016-10-01T02:21:44.559Z,1008.98
2016-10-01T02:22:44.681Z,1008.99
2016-10-01T02:23:44.602Z,1009.01
2016-10-01T02:24:44.626Z,1009.01
2016-10-01T02:26:44.668Z,1009.03
2016-10-01T02:27:44.690Z,1009.03
2016-10-01T02:28:44.718Z,1009.03
2016-10-01T02:29:44.734Z,1009.01
2016-10-01T02:30:44.759Z,1009.06
2016-10-01T02:31:44.779Z,1009.07
2016-10-01T02:32:44.802Z,1009.05
2016-10-01T02:33:44.824Z,1009.03
2016-10-01T02:34:44.847Z,1009.02
2016-10-01T02:35:44.868Z,1009.03
2016-10-01T02:36:44.887Z,1009.03
2016-10-01T02:37:44.909Z,1009.09
2016-10-01T02:38:44.932Z,1009.05
2016-10-01T02:39:44.954Z,1009.09
2016-10-01T02:41:44.999Z,1009.09
2016-10-01T02:42:45.021Z,1009.06
2016-10-01T02:43:45.046Z,1009.04
2016-10-01T02:44:45.063Z,1009.03
2016-10-01T02:45:45.088Z,1009.1
2016-10-01T02:46:45.109Z,1009.04
2016-10-01T02:47:45.131Z,1009.07
2016-10-01T02:48:45.153Z,1009.09
2016-10-01T02:49:45.172Z,1009.11
2016-10-01T02:50:45.195Z,1009.12
2016-10-01T02:51:45.269Z,1009.14
2016-10-01T02:52:45.241Z,1009.15
2016-10-01T02:53:45.262Z,1009.11
2016-10-01T02:54:45.282Z,1009.15
2016-10-01T02:55:45.305Z,1009.1
2016-10-01T02:56:45.328Z,1009.09
2016-10-01T02:57:45.347Z,1009.11
2016-10-01T02:58:45.372Z,1009.08
2016-10-01T02:59:45.395Z,1009.09
2016-10-01T03:00:45.415Z,1009.09
2016-10-01T03:01:45.436Z,1009.07
2016-10-01T03:02:45.457Z,1009.07
2016-10-01T03:03:45.482Z,1009.03
2016-10-01T03:04:45.501Z,1009.01
2016-10-01T03:05:45.524Z,1009.03
2016-10-01T03:06:45.545Z,1009.02
2016-10-01T03:07:45.568Z,1008.98
2016-10-01T03:08:45.591Z,1008.99
2016-10-01T03:09:45.613Z,1009.04
2016-10-01T03:10:45.636Z,1009.02
2016-10-01T03:11:45.657Z,1009.03
2016-10-01T03:13:45.700Z,1008.98
2016-10-01T03:14:45.721Z,1008.94
2016-10-01T03:15:45.742Z,1008.92
2016-10-01T03:16:45.766Z,1008.86
2016-10-01T03:17:45.786Z,1008.85
2016-10-01T03:18:45.810Z,1008.84
2016-10-01T03:19:45.830Z,1008.81
2016-10-01T03:20:45.855Z,1008.82
2016-10-01T03:21:45.875Z,1008.81
2016-10-01T03:22:45.948Z,1008.79
2016-10-01T03:23:45.921Z,1008.82
2016-10-01T03:24:45.940Z,1008.84
2016-10-01T03:25:45.963Z,1008.87
2016-10-01T03:26:45.986Z,1008.86
2016-10-01T03:27:46.005Z,1008.83
2016-10-01T03:29:46.052Z,1008.83
2016-10-01T03:30:46.073Z,1008.85
2016-10-01T03:31:46.094Z,1008.87
2016-10-01T03:32:46.118Z,1008.87
2016-10-01T03:33:46.139Z,1008.88
2016-10-01T03:34:46.160Z,1008.87
2016-10-01T03:35:46.434Z,1008.92
2016-10-01T03:36:46.203Z,1008.89
2016-10-01T03:37:46.276Z,1008.84
2016-10-01T03:38:46.249Z,1008.87
2016-10-01T03:39:46.272Z,1008.82
2016-10-01T03:40:46.294Z,1008.82
2016-10-01T03:41:46.313Z,1008.83
2016-10-01T03:42:46.337Z,1008.84
2016-10-01T03:43:46.358Z,1008.82
2016-10-01T03:45:46.401Z,1008.86
2016-10-01T03:46:46.425Z,1008.87
2016-10-01T03:47:46.446Z,1008.88
2016-10-01T03:48:46.469Z,1008.86
2016-10-01T03:49:46.491Z,1008.91
2016-10-01T03:50:46.514Z,1008.89
2016-10-01T03:51:46.534Z,1008.91
2016-10-01T03:52:46.554Z,1008.88
2016-10-01T03:53:46.577Z,1008.9
2016-10-01T03:54:46.600Z,1008.88
2016-10-01T03:55:46.623Z,1008.87
2016-10-01T03:56:46.645Z,1008.89
2016-10-01T03:57:46.665Z,1008.88
2016-10-01T03:58:46.690Z,1008.87
2016-10-01T03:59:46.709Z,1008.91
2016-10-01T04:01:46.756Z,1008.79
2016-10-01T04:02:46.778Z,1008.8
2016-10-01T04:03:46.797Z,1008.79
2016-10-01T04:04:46.819Z,1008.8
2016-10-01T04:05:46.842Z,1008.78
2016-10-01T04:06:46.865Z,1008.82
2016-10-01T04:07:46.888Z,1008.73
2016-10-01T04:08:46.907Z,1008.78
2016-10-01T04:09:46.931Z,1008.77
2016-10-01T04:10:46.953Z,1008.79
2016-10-01T04:11:46.976Z,1008.81
2016-10-01T04:12:46.996Z,1008.87
2016-10-01T04:13:47.020Z,1008.89
2016-10-01T04:14:47.091Z,1008.93
2016-10-01T04:16:47.087Z,1008.96
2016-10-01T04:17:47.108Z,1009.02
2016-10-01T04:18:47.131Z,1008.94
2016-10-01T04:19:47.152Z,1008.94
2016-10-01T04:20:47.175Z,1008.96
2016-10-01T04:21:47.194Z,1008.92
2016-10-01T04:22:47.217Z,1008.86
2016-10-01T04:23:47.239Z,1008.86
2016-10-01T04:24:47.260Z,1008.81
2016-10-01T04:25:47.284Z,1008.77
2016-10-01T04:26:47.307Z,1008.75
2016-10-01T04:27:47.331Z,1008.71
2016-10-01T04:28:47.348Z,1008.73
2016-10-01T04:29:47.372Z,1008.79
2016-10-01T04:30:47.393Z,1008.78
2016-10-01T04:31:47.417Z,1008.8
2016-10-01T04:32:47.435Z,1008.8
2016-10-01T04:33:47.458Z,1008.8
2016-10-01T04:34:47.482Z,1008.81
2016-10-01T04:35:47.503Z,1008.8
2016-10-01T04:36:47.524Z,1008.83
2016-10-01T04:37:47.547Z,1008.8
2016-10-01T04:38:47.620Z,1008.81
2016-10-01T04:39:47.592Z,1008.85
2016-10-01T04:40:47.617Z,1008.85
2016-10-01T04:41:47.637Z,1008.86
2016-10-01T04:42:47.659Z,1008.81
2016-10-01T04:43:47.728Z,1008.81
2016-10-01T04:44:47.701Z,1008.83
2016-10-01T04:45:47.723Z,1008.86
2016-10-01T04:46:47.744Z,1008.91
2016-10-01T04:48:47.789Z,1008.96
2016-10-01T04:49:47.811Z,1008.93
2016-10-01T04:50:47.832Z,1008.93
2016-10-01T04:51:47.856Z,1008.88
2016-10-01T04:52:47.877Z,1008.95
2016-10-01T04:53:47.907Z,1008.91
2016-10-01T04:54:48.121Z,1008.91
2016-10-01T04:55:47.943Z,1008.91
2016-10-01T04:56:47.967Z,1008.88
2016-10-01T04:57:47.986Z,1008.92
2016-10-01T04:58:48.008Z,1008.93
2016-10-01T04:59:48.031Z,1008.93
2016-10-01T05:00:48.055Z,1008.88
2016-10-01T05:01:48.074Z,1008.9
2016-10-01T05:02:48.096Z,1008.83
2016-10-01T05:04:48.142Z,1008.79
2016-10-01T05:05:48.164Z,1008.83
2016-10-01T05:06:48.187Z,1008.85
2016-10-01T05:07:48.208Z,1008.83
2016-10-01T05:08:48.228Z,1008.86
2016-10-01T05:09:48.252Z,1008.88
2016-10-01T05:10:48.272Z,1008.9
2016-10-01T05:11:48.296Z,1008.9
2016-10-01T05:12:48.317Z,1008.91
2016-10-01T05:13:48.338Z,1008.9
2016-10-01T05:14:48.361Z,1008.9
2016-10-01T05:15:48.383Z,1008.89
2016-10-01T05:16:48.403Z,1008.89
2016-10-01T05:17:48.424Z,1008.87
2016-10-01T05:18:48.450Z,1008.88
2016-10-01T05:20:48.491Z,1008.84
2016-10-01T05:21:48.514Z,1008.79
2016-10-01T05:22:48.537Z,1008.78
2016-10-01T05:23:48.556Z,1008.78
2016-10-01T05:24:48.580Z,1008.79
2016-10-01T05:25:48.599Z,1008.8
2016-10-01T05:26:48.622Z,1008.75
2016-10-01T05:27:48.643Z,1008.68
2016-10-01T05:28:48.671Z,1008.71
2016-10-01T05:29:48.690Z,1008.72
2016-10-01T05:30:48.711Z,1008.73
2016-10-01T05:31:48.732Z,1008.73
2016-10-01T05:32:48.755Z,1008.76
2016-10-01T05:33:48.778Z,1008.73
2016-10-01T05:34:48.799Z,1008.72
2016-10-01T05:36:48.842Z,1008.73
2016-10-01T05:37:48.864Z,1008.73
2016-10-01T05:38:48.886Z,1008.74
2016-10-01T05:39:48.908Z,1008.74
2016-10-01T05:40:48.930Z,1008.72
2016-10-01T05:41:48.951Z,1008.68
2016-10-01T05:42:48.973Z,1008.73
2016-10-01T05:43:48.998Z,1008.7
2016-10-01T05:44:49.018Z,1008.74
2016-10-01T05:45:49.039Z,1008.75
2016-10-01T05:46:49.062Z,1008.73
2016-10-01T05:47:49.083Z,1008.71
2016-10-01T05:48:49.106Z,1008.73
2016-10-01T05:49:49.128Z,1008.77
2016-10-01T05:51:49.178Z,1008.75
2016-10-01T05:52:49.196Z,1008.78
2016-10-01T05:53:49.218Z,1008.76
2016-10-01T05:54:49.241Z,1008.74
2016-10-01T05:55:49.264Z,1008.73
2016-10-01T05:56:49.285Z,1008.75
2016-10-01T05:57:49.305Z,1008.77
2016-10-01T05:58:49.328Z,1008.77
2016-10-01T05:59:49.348Z,1008.79
2016-10-01T06:00:49.373Z,1008.79
2016-10-01T06:01:49.396Z,1008.75
2016-10-01T06:02:49.418Z,1008.73
2016-10-01T06:03:49.637Z,1008.73
2016-10-01T06:04:49.460Z,1008.72
2016-10-01T06:05:49.482Z,1008.72
2016-10-01T06:06:49.504Z,1008.74
2016-10-01T06:07:49.527Z,1008.71
2016-10-01T06:08:49.554Z,1008.71
2016-10-01T06:09:49.570Z,1008.71
2016-10-01T06:10:49.591Z,1008.73
2016-10-01T06:11:49.616Z,1008.73
2016-10-01T06:12:49.636Z,1008.71
2016-10-01T06:13:49.659Z,1008.64
2016-10-01T06:14:49.682Z,1008.66
2016-10-01T06:15:49.705Z,1008.64
2016-10-01T06:16:49.725Z,1008.64
2016-10-01T06:17:49.750Z,1008.66
2016-10-01T06:18:49.769Z,1008.68
2016-10-01T06:19:49.793Z,1008.61
2016-10-01T06:20:49.816Z,1008.62
2016-10-01T06:21:49.837Z,1008.58
2016-10-01T06:23:49.882Z,1008.55
2016-10-01T06:24:50.105Z,1008.54
2016-10-01T06:25:49.924Z,1008.57
2016-10-01T06:26:49.946Z,1008.6
2016-10-01T06:27:49.970Z,1008.61
2016-10-01T06:28:49.994Z,1008.62
2016-10-01T06:29:50.016Z,1008.62
2016-10-01T06:30:50.038Z,1008.6
2016-10-01T06:31:50.062Z,1008.57
2016-10-01T06:32:50.083Z,1008.59
2016-10-01T06:33:50.105Z,1008.63
2016-10-01T06:34:50.127Z,1008.62
2016-10-01T06:35:50.151Z,1008.58
2016-10-01T06:36:50.169Z,1008.59
2016-10-01T06:37:50.193Z,1008.54
2016-10-01T06:39:50.240Z,1008.49
2016-10-01T06:40:50.260Z,1008.52
2016-10-01T06:41:50.282Z,1008.54
2016-10-01T06:42:50.305Z,1008.6
2016-10-01T06:43:50.327Z,1008.58
2016-10-01T06:44:50.349Z,1008.59
2016-10-01T06:45:50.372Z,1008.58
2016-10-01T06:46:50.395Z,1008.57
2016-10-01T06:47:50.416Z,1008.58
2016-10-01T06:48:50.441Z,1008.54
2016-10-01T06:49:50.463Z,1008.59
2016-10-01T06:50:50.485Z,1008.55
2016-10-01T06:51:50.506Z,1008.56
2016-10-01T06:52:50.630Z,1008.56
2016-10-01T06:53:50.554Z,1008.5
2016-10-01T06:55:50.597Z,1008.47
2016-10-01T06:56:50.622Z,1008.45
2016-10-01T06:57:50.645Z,1008.46
2016-10-01T06:58:50.667Z,1008.45
2016-10-01T06:59:50.689Z,1008.43
2016-10-01T07:00:50.710Z,1008.45
2016-10-01T07:01:50.736Z,1008.46
2016-10-01T07:02:50.754Z,1008.49
2016-10-01T07:03:50.780Z,1008.54
2016-10-01T07:04:50.803Z,1008.54
2016-10-01T07:05:50.825Z,1008.56
2016-10-01T07:06:51.048Z,1008.52
2016-10-01T07:07:50.868Z,1008.54
2016-10-01T07:08:50.891Z,1008.56
2016-10-01T07:09:50.915Z,1008.58
2016-10-01T07:11:50.959Z,1008.56
2016-10-01T07:12:50.982Z,1008.57
2016-10-01T07:13:51.006Z,1008.54
2016-10-01T07:14:51.029Z,1008.56
2016-10-01T07:15:51.051Z,1008.54
2016-10-01T07:16:51.072Z,1008.53
2016-10-01T07:17:51.095Z,1008.58
2016-10-01T07:18:51.121Z,1008.59
2016-10-01T07:19:51.142Z,1008.62
2016-10-01T07:20:51.166Z,1008.58
2016-10-01T07:21:51.189Z,1008.61
2016-10-01T07:22:51.213Z,1008.61
2016-10-01T07:23:51.235Z,1008.61
2016-10-01T07:24:51.257Z,1008.61
2016-10-01T07:26:51.305Z,1008.6
2016-10-01T07:27:51.328Z,1008.63
2016-10-01T07:28:51.356Z,1008.6
2016-10-01T07:29:51.374Z,1008.63
2016-10-01T07:30:51.398Z,1008.61
2016-10-01T07:31:51.418Z,1008.59
2016-10-01T07:32:51.444Z,1008.61
2016-10-01T07:33:51.465Z,1008.61
2016-10-01T07:34:51.489Z,1008.58
2016-10-01T07:35:51.514Z,1008.55
2016-10-01T07:36:51.537Z,1008.58
2016-10-01T07:37:51.558Z,1008.6
2016-10-01T07:38:51.582Z,1008.71
2016-10-01T07:39:51.607Z,1008.67
2016-10-01T07:40:51.628Z,1008.68
2016-10-01T07:41:51.651Z,1008.63
2016-10-01T07:42:51.676Z,1008.58
2016-10-01T07:43:51.697Z,1008.61
2016-10-01T07:44:51.721Z,1008.59
2016-10-01T07:45:51.745Z,1008.54
2016-10-01T07:46:51.767Z,1008.58
2016-10-01T07:47:51.790Z,1008.59
2016-10-01T07:48:51.816Z,1008.56
2016-10-01T07:49:51.837Z,1008.59
2016-10-01T07:50:51.877Z,1008.55
2016-10-01T07:51:51.885Z,1008.53
2016-10-01T07:52:51.909Z,1008.49
2016-10-01T07:53:51.930Z,1008.49
2016-10-01T07:54:51.953Z,1008.51
2016-10-01T07:55:51.977Z,1008.5
2016-10-01T07:56:51.999Z,1008.51
2016-10-01T07:58:52.047Z,1008.52
2016-10-01T07:59:52.070Z,1008.48
2016-10-01T08:00:52.095Z,1008.52
2016-10-01T08:01:52.118Z,1008.54
2016-10-01T08:02:52.142Z,1008.5
2016-10-01T08:03:52.165Z,1008.48
2016-10-01T08:04:52.186Z,1008.5
2016-10-01T08:05:52.212Z,1008.48
2016-10-01T08:06:52.235Z,1008.51
2016-10-01T08:07:52.258Z,1008.48
2016-10-01T08:08:52.281Z,1008.51
2016-10-01T08:09:52.305Z,1008.51
2016-10-01T08:10:52.327Z,1008.54
2016-10-01T08:11:52.350Z,1008.53
2016-10-01T08:12:52.375Z,1008.49
2016-10-01T08:14:52.422Z,1008.45
2016-10-01T08:15:52.445Z,1008.46
2016-10-01T08:16:52.468Z,1008.42
2016-10-01T08:17:52.490Z,1008.4
2016-10-01T08:18:52.511Z,1008.4
2016-10-01T08:19:52.538Z,1008.4
2016-10-01T08:20:52.559Z,1008.34
2016-10-01T08:21:52.583Z,1008.35
2016-10-01T08:22:52.605Z,1008.38
2016-10-01T08:23:52.630Z,1008.36
2016-10-01T08:24:52.655Z,1008.36
2016-10-01T08:25:52.680Z,1008.35
2016-10-01T08:26:52.702Z,1008.4
2016-10-01T08:27:52.725Z,1008.38
2016-10-01T08:28:52.749Z,1008.34
2016-10-01T08:30:52.795Z,1008.38
2016-10-01T08:31:52.820Z,1008.34
2016-10-01T08:32:52.841Z,1008.33
2016-10-01T08:33:52.863Z,1008.35
2016-10-01T08:34:52.888Z,1008.37
2016-10-01T08:35:52.913Z,1008.36
2016-10-01T08:36:52.936Z,1008.35
2016-10-01T08:37:52.958Z,1008.29
2016-10-01T08:38:52.983Z,1008.33
2016-10-01T08:39:53.005Z,1008.3
2016-10-01T08:40:53.030Z,1008.29
2016-10-01T08:41:53.055Z,1008.3
2016-10-01T08:42:53.079Z,1008.27
2016-10-01T08:43:53.100Z,1008.25
2016-10-01T08:44:53.122Z,1008.28
2016-10-01T08:46:53.171Z,1008.26
2016-10-01T08:47:53.196Z,1008.29
2016-10-01T08:48:53.217Z,1008.26
2016-10-01T08:49:53.242Z,1008.31
2016-10-01T08:50:53.264Z,1008.29
2016-10-01T08:51:53.288Z,1008.3
2016-10-01T08:52:53.312Z,1008.31
2016-10-01T08:53:53.337Z,1008.31
2016-10-01T08:54:53.360Z,1008.33
2016-10-01T08:55:53.381Z,1008.34
2016-10-01T08:56:53.408Z,1008.36
2016-10-01T08:57:53.432Z,1008.3
2016-10-01T08:58:53.455Z,1008.37
2016-10-01T08:59:53.479Z,1008.36
2016-10-01T09:01:53.525Z,1008.36
2016-10-01T09:02:53.548Z,1008.33
2016-10-01T09:03:53.577Z,1008.31
2016-10-01T09:04:53.596Z,1008.28
2016-10-01T09:05:53.619Z,1008.23
2016-10-01T09:06:53.642Z,1008.22
2016-10-01T09:07:53.666Z,1008.21
2016-10-01T09:08:53.692Z,1008.18
2016-10-01T09:09:53.713Z,1008.1
2016-10-01T09:10:53.738Z,1008.09
2016-10-01T09:11:53.762Z,1008.11
2016-10-01T09:12:53.786Z,1008.12
2016-10-01T09:13:53.809Z,1008.14
2016-10-01T09:14:53.831Z,1008.13
2016-10-01T09:15:53.855Z,1008.16
2016-10-01T09:16:53.878Z,1008.14
2016-10-01T09:17:53.901Z,1008.14
2016-10-01T09:18:53.927Z,1008.12
2016-10-01T09:19:53.950Z,1008.13
2016-10-01T09:20:53.972Z,1008.15
2016-10-01T09:21:53.997Z,1008.13
2016-10-01T09:22:54.021Z,1008.16
2016-10-01T09:23:54.042Z,1008.15
2016-10-01T09:24:54.068Z,1008.15
2016-10-01T09:25:54.091Z,1008.15
2016-10-01T09:26:54.115Z,1008.11
2016-10-01T09:27:54.143Z,1008.12
2016-10-01T09:28:54.162Z,1008.1
2016-10-01T09:29:54.184Z,1008.12
2016-10-01T09:30:54.207Z,1008.13
2016-10-01T09:31:54.229Z,1008.11
2016-10-01T09:33:54.277Z,1008.12
2016-10-01T09:34:54.303Z,1008.12
2016-10-01T09:35:54.325Z,1008.15
2016-10-01T09:36:54.350Z,1008.1
2016-10-01T09:37:54.374Z,1008.1
2016-10-01T09:38:54.397Z,1008.04
2016-10-01T09:39:54.420Z,1008.03
2016-10-01T09:40:54.641Z,1007.95
2016-10-01T09:41:54.466Z,1007.96
2016-10-01T09:42:54.488Z,1007.86
2016-10-01T09:43:54.512Z,1007.87
2016-10-01T09:44:54.536Z,1007.89
2016-10-01T09:45:54.559Z,1007.83
2016-10-01T09:46:54.584Z,1007.89
2016-10-01T09:47:54.608Z,1007.86
2016-10-01T09:49:54.653Z,1007.82
2016-10-01T09:50:54.677Z,1007.81
2016-10-01T09:51:54.703Z,1007.84
2016-10-01T09:52:54.726Z,1007.78
2016-10-01T09:53:54.749Z,1007.76
2016-10-01T09:54:54.773Z,1007.7
2016-10-01T09:55:54.796Z,1007.69
2016-10-01T09:56:54.818Z,1007.7
2016-10-01T09:57:54.844Z,1007.66
2016-10-01T09:58:54.867Z,1007.63
2016-10-01T09:59:54.889Z,1007.7
2016-10-01T10:00:54.915Z,1007.7
2016-10-01T10:01:54.936Z,1007.77
2016-10-01T10:02:54.961Z,1007.77
2016-10-01T10:03:55.234Z,1007.75
2016-10-01T10:05:55.029Z,1007.75
2016-10-01T10:06:55.056Z,1007.74
2016-10-01T10:07:55.080Z,1007.73
2016-10-01T10:08:55.103Z,1007.68
2016-10-01T10:09:55.124Z,1007.66
2016-10-01T10:10:55.155Z,1007.67
2016-10-01T10:11:55.172Z,1007.68
2016-10-01T10:12:55.194Z,1007.65
2016-10-01T10:13:55.220Z,1007.64
2016-10-01T10:14:55.244Z,1007.62
2016-10-01T10:15:55.267Z,1007.63
2016-10-01T10:16:55.291Z,1007.67
2016-10-01T10:17:55.315Z,1007.63
2016-10-01T10:18:55.338Z,1007.6
2016-10-01T10:19:55.363Z,1007.58
2016-10-01T10:21:55.408Z,1007.55
2016-10-01T10:22:55.431Z,1007.61
2016-10-01T10:23:55.454Z,1007.57
2016-10-01T10:24:55.677Z,1007.6
2016-10-01T10:25:55.501Z,1007.58
2016-10-01T10:26:55.526Z,1007.54
2016-10-01T10:27:55.548Z,1007.53
2016-10-01T10:28:55.573Z,1007.56
2016-10-01T10:29:55.596Z,1007.55
2016-10-01T10:30:55.619Z,1007.6
2016-10-01T10:31:55.643Z,1007.58
2016-10-01T10:32:55.675Z,1007.59
2016-10-01T10:33:55.691Z,1007.59
2016-10-01T10:34:55.714Z,1007.6
2016-10-01T10:36:55.763Z,1007.61
2016-10-01T10:37:55.786Z,1007.61
2016-10-01T10:38:55.812Z,1007.58
2016-10-01T10:39:55.834Z,1007.55
2016-10-01T10:40:55.861Z,1007.54
2016-10-01T10:41:55.884Z,1007.56
2016-10-01T10:42:55.907Z,1007.55
2016-10-01T10:43:55.930Z,1007.55
2016-10-01T10:44:55.952Z,1007.51
2016-10-01T10:45:55.977Z,1007.52
2016-10-01T10:46:56.001Z,1007.47
2016-10-01T10:47:56.024Z,1007.45
2016-10-01T10:48:56.048Z,1007.4
2016-10-01T10:49:56.072Z,1007.37
2016-10-01T10:50:56.096Z,1007.34
2016-10-01T10:51:56.120Z,1007.34
2016-10-01T10:52:56.146Z,1007.33
2016-10-01T10:53:56.167Z,1007.29
2016-10-01T10:54:56.195Z,1007.25
2016-10-01T10:55:56.216Z,1007.19
2016-10-01T10:56:56.239Z,1007.16
2016-10-01T10:57:56.263Z,1007.17
2016-10-01T10:58:56.288Z,1007.11
2016-10-01T10:59:56.311Z,1007.08
2016-10-01T11:00:56.337Z,1007.05
2016-10-01T11:01:56.359Z,1007.04
2016-10-01T11:02:56.384Z,1006.97
2016-10-01T11:03:56.409Z,1006.98
2016-10-01T11:04:56.433Z,1006.97
2016-10-01T11:05:56.455Z,1006.94
2016-10-01T11:06:56.479Z,1006.9
2016-10-01T11:08:56.525Z,1006.92
2016-10-01T11:09:56.552Z,1006.89
2016-10-01T11:10:56.573Z,1006.88
2016-10-01T11:11:56.598Z,1006.9
2016-10-01T11:12:56.622Z,1006.88
2016-10-01T11:13:56.648Z,1006.88
2016-10-01T11:14:56.972Z,1006.87
2016-10-01T11:15:56.693Z,1006.85
2016-10-01T11:16:56.719Z,1006.84
2016-10-01T11:17:56.741Z,1006.78
2016-10-01T11:18:56.767Z,1006.77
2016-10-01T11:19:56.791Z,1006.75
2016-10-01T11:20:56.813Z,1006.74
2016-10-01T11:21:56.839Z,1006.74
2016-10-01T11:22:56.863Z,1006.69
2016-10-01T11:24:56.911Z,1006.69
2016-10-01T11:25:56.931Z,1006.68
2016-10-01T11:26:56.958Z,1006.67
2016-10-01T11:27:56.979Z,1006.65
2016-10-01T11:28:57.005Z,1006.62
2016-10-01T11:29:57.027Z,1006.6
2016-10-01T11:30:57.053Z,1006.57
2016-10-01T11:31:57.074Z,1006.62
2016-10-01T11:32:57.100Z,1006.63
2016-10-01T11:33:57.124Z,1006.64
2016-10-01T11:34:57.147Z,1006.61
2016-10-01T11:35:57.170Z,1006.59
2016-10-01T11:36:57.193Z,1006.63
2016-10-01T11:37:57.217Z,1006.62
2016-10-01T11:38:57.243Z,1006.67
2016-10-01T11:40:57.290Z,1006.65
2016-10-01T11:41:57.315Z,1006.61
2016-10-01T11:42:57.339Z,1006.63
2016-10-01T11:43:57.362Z,1006.63
2016-10-01T11:44:57.384Z,1006.63
2016-10-01T11:45:57.510Z,1006.65
2016-10-01T11:46:57.432Z,1006.61
2016-10-01T11:47:57.455Z,1006.55
2016-10-01T11:48:57.480Z,1006.55
2016-10-01T11:49:57.504Z,1006.54
2016-10-01T11:50:57.529Z,1006.5
2016-10-01T11:51:57.551Z,1006.47
2016-10-01T11:52:57.575Z,1006.45
2016-10-01T11:53:57.601Z,1006.44
2016-10-01T11:54:57.874Z,1006.47
2016-10-01T11:56:57.671Z,1006.42
2016-10-01T11:57:57.695Z,1006.43
2016-10-01T11:58:57.720Z,1006.41
2016-10-01T11:59:57.741Z,1006.43
2016-10-01T12:00:57.768Z,1006.4
2016-10-01T12:01:57.791Z,1006.36
2016-10-01T12:02:57.813Z,1006.36
2016-10-01T12:03:57.839Z,1006.36
2016-10-01T12:04:57.861Z,1006.38
2016-10-01T12:05:57.886Z,1006.35
2016-10-01T12:06:57.910Z,1006.33
2016-10-01T12:07:57.933Z,1006.31
2016-10-01T12:08:57.956Z,1006.25
2016-10-01T12:09:57.980Z,1006.19
2016-10-01T12:11:58.029Z,1006.17
2016-10-01T12:12:58.054Z,1006.13
2016-10-01T12:13:58.075Z,1006.12
2016-10-01T12:14:58.099Z,1006.08
2016-10-01T12:15:58.122Z,1006.08
2016-10-01T12:16:58.146Z,1006.06
2016-10-01T12:17:58.170Z,1006.03
2016-10-01T12:18:58.196Z,1006.01
2016-10-01T12:19:58.219Z,1005.94
2016-10-01T12:20:58.241Z,1005.9
2016-10-01T12:21:58.267Z,1005.87
2016-10-01T12:22:58.291Z,1005.84
2016-10-01T12:23:58.314Z,1005.84
2016-10-01T12:24:58.339Z,1005.77
2016-10-01T12:25:58.362Z,1005.81
2016-10-01T12:26:58.585Z,1005.8
2016-10-01T12:27:58.407Z,1005.79
2016-10-01T12:28:58.433Z,1005.79
2016-10-01T12:29:58.456Z,1005.78
2016-10-01T12:30:58.480Z,1005.78
2016-10-01T12:31:58.503Z,1005.76
2016-10-01T12:32:58.528Z,1005.7
2016-10-01T12:33:58.553Z,1005.65
2016-10-01T12:34:58.576Z,1005.6
2016-10-01T12:35:58.598Z,1005.62
2016-10-01T12:36:58.621Z,1005.58
2016-10-01T12:37:58.645Z,1005.55
2016-10-01T12:38:58.668Z,1005.53
2016-10-01T12:39:58.694Z,1005.57
2016-10-01T12:40:58.718Z,1005.57
2016-10-01T12:41:58.741Z,1005.6
2016-10-01T12:43:58.788Z,1005.51
2016-10-01T12:44:58.813Z,1005.44
2016-10-01T12:45:58.840Z,1005.32
2016-10-01T12:46:58.863Z,1005.31
2016-10-01T12:47:58.881Z,1005.3
2016-10-01T12:48:58.907Z,1005.3
2016-10-01T12:49:58.930Z,1005.3